ヌメア の空港の天気 - METARとTAF

ヌメア国際空港 ( NWWW / NOU ) - ニューカレドニア ヌメア
飛行場実況気象(Metar)
観測時間09/26 08:00 NCT (09/25 21:00 UTC)
風向・風速不定 1m/s
視程10km以上
天気現象
なし
気温25℃
湿度78%
気圧1014hPa
METARNWWW 252100Z AUTO VRB02KT CAVOK 25/21 Q1014 TEMPO BKN010
過去の天気等 Google飛行場航空写真 Wunderground天気予報

過去48時間のMETAR

飛行場予報(TAF)
発表時間: 9/26 05:46 NCT (9/25 18:46 UTC)
予報対象時間: 26日5時 NCT ~ 27日5時 NCT
風向・風速不定 1m/s
視程10km以上
全天の4割程度の雲 雲底高度 460m
全天の4割程度の雲 雲底高度 1220m
26日5時 NCT ~ 26日10時 NCT に一時的に
全天の8割程度の雲 雲底高度 300m
26日10時 NCT ~ 26日12時 NCT に徐々に
風向・風速南南西 6m/s
26日11時 NCT ~ 26日19時 NCT に 確率 30% で一時的に
視程4000m
天気現象しゅう雨
全天の8割程度の雲 雲底高度 300m
少しの積乱雲 雲底高度 460m
全天の4割程度の塔状積雲 雲底高度 610m
26日19時 NCT ~ 26日21時 NCT に徐々に
風向・風速不定 1m/s
TAF AMD NWWW 251846Z 2518/2618 VRB02KT 9999 SCT015 SCT040
TEMPO 2518/2523 BKN010
BECMG 2523/2601 20012KT
PROB30 TEMPO 2600/2608 4000 SHRA BKN010 FEW015CB SCT020TCU
BECMG 2608/2610 VRB02KT